sensor_id;sensor_type;location;lat;lon;timestamp;P1;durP1;ratioP1;P2;durP2;ratioP2
67508;SDS011;54354;44.724;11.284;2022-11-23T00:02:22;5.15;;;4.68;;
67508;SDS011;54354;44.724;11.284;2022-11-23T00:04:48;5.43;;;4.43;;
67508;SDS011;54354;44.724;11.284;2022-11-23T00:07:13;4.88;;;4.30;;
67508;SDS011;54354;44.724;11.284;2022-11-23T00:09:39;5.15;;;4.57;;
67508;SDS011;54354;44.724;11.284;2022-11-23T00:12:04;5.20;;;4.38;;
67508;SDS011;54354;44.724;11.284;2022-11-23T00:14:30;4.60;;;4.07;;
67508;SDS011;54354;44.724;11.284;2022-11-23T00:16:56;4.90;;;4.40;;
67508;SDS011;54354;44.724;11.284;2022-11-23T00:19:21;4.43;;;4.00;;
67508;SDS011;54354;44.724;11.284;2022-11-23T00:21:47;3.97;;;3.67;;
67508;SDS011;54354;44.724;11.284;2022-11-23T00:24:12;5.07;;;3.30;;
67508;SDS011;54354;44.724;11.284;2022-11-23T00:26:37;3.85;;;3.42;;
67508;SDS011;54354;44.724;11.284;2022-11-23T00:29:03;6.95;;;3.83;;
67508;SDS011;54354;44.724;11.284;2022-11-23T00:31:28;4.47;;;3.45;;
67508;SDS011;54354;44.724;11.284;2022-11-23T00:33:54;3.80;;;3.50;;
67508;SDS011;54354;44.724;11.284;2022-11-23T00:36:21;3.50;;;3.20;;
67508;SDS011;54354;44.724;11.284;2022-11-23T00:38:48;3.60;;;3.30;;
67508;SDS011;54354;44.724;11.284;2022-11-23T00:41:15;3.10;;;2.83;;
67508;SDS011;54354;44.724;11.284;2022-11-23T00:43:43;3.75;;;3.08;;
67508;SDS011;54354;44.724;11.284;2022-11-23T00:48:42;3.03;;;2.72;;
67508;SDS011;54354;44.724;11.284;2022-11-23T00:51:10;3.00;;;2.70;;
67508;SDS011;54354;44.724;11.284;2022-11-23T00:53:38;2.72;;;2.53;;
67508;SDS011;54354;44.724;11.284;2022-11-23T00:56:04;2.45;;;2.25;;
67508;SDS011;54354;44.724;11.284;2022-11-23T00:58:30;2.70;;;2.40;;
67508;SDS011;54354;44.724;11.284;2022-11-23T01:01:07;2.47;;;1.67;;
67508;SDS011;54354;44.724;11.284;2022-11-23T01:03:36;2.35;;;2.15;;
67508;SDS011;54354;44.724;11.284;2022-11-23T01:06:04;1.83;;;1.73;;
67508;SDS011;54354;44.724;11.284;2022-11-23T01:08:31;2.55;;;2.10;;
67508;SDS011;54354;44.724;11.284;2022-11-23T01:10:58;2.00;;;1.88;;
67508;SDS011;54354;44.724;11.284;2022-11-23T01:13:24;2.15;;;1.80;;
67508;SDS011;54354;44.724;11.284;2022-11-23T01:15:50;1.90;;;1.55;;
67508;SDS011;54354;44.724;11.284;2022-11-23T01:18:17;1.92;;;1.80;;
67508;SDS011;54354;44.724;11.284;2022-11-23T01:20:43;1.60;;;1.50;;
67508;SDS011;54354;44.724;11.284;2022-11-23T01:23:08;1.70;;;1.60;;
67508;SDS011;54354;44.724;11.284;2022-11-23T01:25:37;1.75;;;1.30;;
67508;SDS011;54354;44.724;11.284;2022-11-23T01:28:03;2.20;;;1.50;;
67508;SDS011;54354;44.724;11.284;2022-11-23T01:30:28;1.75;;;1.55;;
67508;SDS011;54354;44.724;11.284;2022-11-23T01:32:54;1.52;;;1.30;;
67508;SDS011;54354;44.724;11.284;2022-11-23T01:35:19;1.75;;;1.48;;
67508;SDS011;54354;44.724;11.284;2022-11-23T01:37:45;2.33;;;1.42;;
67508;SDS011;54354;44.724;11.284;2022-11-23T01:40:10;1.80;;;1.60;;
67508;SDS011;54354;44.724;11.284;2022-11-23T01:48:05;1.60;;;1.50;;
67508;SDS011;54354;44.724;11.284;2022-11-23T01:50:36;2.05;;;1.23;;
67508;SDS011;54354;44.724;11.284;2022-11-23T01:53:03;1.20;;;1.10;;
67508;SDS011;54354;44.724;11.284;2022-11-23T01:55:28;2.35;;;1.35;;
67508;SDS011;54354;44.724;11.284;2022-11-23T01:57:54;1.98;;;1.30;;
67508;SDS011;54354;44.724;11.284;2022-11-23T02:00:21;2.20;;;1.17;;
67508;SDS011;54354;44.724;11.284;2022-11-23T02:02:50;1.25;;;1.13;;
67508;SDS011;54354;44.724;11.284;2022-11-23T02:05:22;1.52;;;1.38;;
67508;SDS011;54354;44.724;11.284;2022-11-23T02:07:53;4.95;;;1.20;;
67508;SDS011;54354;44.724;11.284;2022-11-23T02:10:20;1.70;;;1.20;;
67508;SDS011;54354;44.724;11.284;2022-11-23T02:12:47;1.35;;;1.25;;
67508;SDS011;54354;44.724;11.284;2022-11-23T03:24:47;2.55;;;2.03;;
67508;SDS011;54354;44.724;11.284;2022-11-23T03:27:14;1.98;;;1.77;;
67508;SDS011;54354;44.724;11.284;2022-11-23T03:29:41;1.80;;;1.70;;
67508;SDS011;54354;44.724;11.284;2022-11-23T03:32:13;2.28;;;1.67;;
67508;SDS011;54354;44.724;11.284;2022-11-23T03:34:41;2.58;;;1.70;;
67508;SDS011;54354;44.724;11.284;2022-11-23T03:37:07;1.70;;;1.60;;
67508;SDS011;54354;44.724;11.284;2022-11-23T03:39:33;1.80;;;1.65;;
67508;SDS011;54354;44.724;11.284;2022-11-23T03:42:10;5.40;;;1.70;;
67508;SDS011;54354;44.724;11.284;2022-11-23T03:44:36;2.08;;;1.58;;
67508;SDS011;54354;44.724;11.284;2022-11-23T03:47:03;1.90;;;1.70;;
67508;SDS011;54354;44.724;11.284;2022-11-23T03:49:29;2.40;;;1.70;;
67508;SDS011;54354;44.724;11.284;2022-11-23T03:51:55;1.77;;;1.52;;
67508;SDS011;54354;44.724;11.284;2022-11-23T03:54:21;1.80;;;1.70;;
67508;SDS011;54354;44.724;11.284;2022-11-23T03:56:46;2.42;;;1.42;;
67508;SDS011;54354;44.724;11.284;2022-11-23T03:59:12;2.00;;;1.60;;
67508;SDS011;54354;44.724;11.284;2022-11-23T04:01:38;1.92;;;1.63;;
67508;SDS011;54354;44.724;11.284;2022-11-23T04:04:07;2.15;;;1.50;;
67508;SDS011;54354;44.724;11.284;2022-11-23T04:06:53;2.28;;;1.50;;
67508;SDS011;54354;44.724;11.284;2022-11-23T04:09:23;1.63;;;1.50;;
67508;SDS011;54354;44.724;11.284;2022-11-23T04:12:11;1.75;;;1.60;;
67508;SDS011;54354;44.724;11.284;2022-11-23T04:14:38;1.67;;;1.58;;
67508;SDS011;54354;44.724;11.284;2022-11-23T04:17:03;2.67;;;1.33;;
67508;SDS011;54354;44.724;11.284;2022-11-23T04:19:29;1.67;;;1.58;;
67508;SDS011;54354;44.724;11.284;2022-11-23T04:21:55;2.08;;;1.60;;
67508;SDS011;54354;44.724;11.284;2022-11-23T04:24:21;2.83;;;1.30;;
67508;SDS011;54354;44.724;11.284;2022-11-23T04:26:48;1.45;;;1.35;;
67508;SDS011;54354;44.724;11.284;2022-11-23T04:29:13;3.47;;;1.50;;
67508;SDS011;54354;44.724;11.284;2022-11-23T04:31:44;1.38;;;1.27;;
67508;SDS011;54354;44.724;11.284;2022-11-23T04:34:15;1.75;;;1.40;;
67508;SDS011;54354;44.724;11.284;2022-11-23T04:36:41;1.60;;;1.50;;
67508;SDS011;54354;44.724;11.284;2022-11-23T04:39:09;2.60;;;1.50;;
67508;SDS011;54354;44.724;11.284;2022-11-23T04:41:45;2.15;;;1.23;;
67508;SDS011;54354;44.724;11.284;2022-11-23T04:44:11;2.55;;;1.55;;
67508;SDS011;54354;44.724;11.284;2022-11-23T04:46:37;2.03;;;1.45;;
67508;SDS011;54354;44.724;11.284;2022-11-23T04:51:33;1.98;;;1.40;;
67508;SDS011;54354;44.724;11.284;2022-11-23T04:53:58;2.05;;;1.50;;
67508;SDS011;54354;44.724;11.284;2022-11-23T04:56:27;1.70;;;1.20;;
67508;SDS011;54354;44.724;11.284;2022-11-23T04:58:52;1.77;;;1.42;;
67508;SDS011;54354;44.724;11.284;2022-11-23T05:01:18;1.77;;;1.67;;
67508;SDS011;54354;44.724;11.284;2022-11-23T05:04:04;1.75;;;1.40;;
67508;SDS011;54354;44.724;11.284;2022-11-23T05:06:29;1.73;;;1.20;;
67508;SDS011;54354;44.724;11.284;2022-11-23T05:08:57;2.10;;;1.40;;
67508;SDS011;54354;44.724;11.284;2022-11-23T05:11:34;1.55;;;1.23;;
67508;SDS011;54354;44.724;11.284;2022-11-23T05:14:00;1.38;;;1.20;;
67508;SDS011;54354;44.724;11.284;2022-11-23T05:16:28;3.05;;;1.33;;
67508;SDS011;54354;44.724;11.284;2022-11-23T05:18:53;1.48;;;1.38;;
67508;SDS011;54354;44.724;11.284;2022-11-23T05:21:19;2.00;;;1.20;;
67508;SDS011;54354;44.724;11.284;2022-11-23T05:23:46;1.65;;;1.42;;
67508;SDS011;54354;44.724;11.284;2022-11-23T05:26:12;1.30;;;1.20;;
67508;SDS011;54354;44.724;11.284;2022-11-23T05:28:38;1.83;;;1.38;;
67508;SDS011;54354;44.724;11.284;2022-11-23T05:31:04;3.05;;;1.10;;
67508;SDS011;54354;44.724;11.284;2022-11-23T05:33:30;1.40;;;1.20;;
67508;SDS011;54354;44.724;11.284;2022-11-23T05:35:56;2.47;;;1.45;;
67508;SDS011;54354;44.724;11.284;2022-11-23T05:38:32;2.25;;;1.25;;
67508;SDS011;54354;44.724;11.284;2022-11-23T05:40:59;1.60;;;1.10;;
67508;SDS011;54354;44.724;11.284;2022-11-23T05:43:26;3.75;;;1.30;;
67508;SDS011;54354;44.724;11.284;2022-11-23T05:45:51;1.92;;;1.30;;
67508;SDS011;54354;44.724;11.284;2022-11-23T05:48:18;2.47;;;1.50;;
67508;SDS011;54354;44.724;11.284;2022-11-23T05:50:50;3.15;;;1.50;;
67508;SDS011;54354;44.724;11.284;2022-11-23T05:53:31;1.40;;;1.30;;
67508;SDS011;54354;44.724;11.284;2022-11-23T05:56:06;1.63;;;1.30;;
67508;SDS011;54354;44.724;11.284;2022-11-23T05:58:38;1.98;;;1.63;;
67508;SDS011;54354;44.724;11.284;2022-11-23T06:01:04;1.85;;;1.40;;
67508;SDS011;54354;44.724;11.284;2022-11-23T06:03:33;2.70;;;1.55;;
67508;SDS011;54354;44.724;11.284;2022-11-23T06:05:59;2.67;;;1.55;;
67508;SDS011;54354;44.724;11.284;2022-11-23T06:08:31;1.75;;;1.30;;
67508;SDS011;54354;44.724;11.284;2022-11-23T06:11:01;1.88;;;1.50;;
67508;SDS011;54354;44.724;11.284;2022-11-23T06:13:27;1.50;;;1.30;;
67508;SDS011;54354;44.724;11.284;2022-11-23T06:15:53;3.95;;;1.73;;
67508;SDS011;54354;44.724;11.284;2022-11-23T06:18:24;1.63;;;1.35;;
67508;SDS011;54354;44.724;11.284;2022-11-23T06:20:50;1.42;;;1.33;;
67508;SDS011;54354;44.724;11.284;2022-11-23T06:23:15;2.95;;;1.52;;
67508;SDS011;54354;44.724;11.284;2022-11-23T06:25:41;3.38;;;1.27;;
67508;SDS011;54354;44.724;11.284;2022-11-23T06:28:18;1.85;;;1.48;;
67508;SDS011;54354;44.724;11.284;2022-11-23T06:30:46;2.72;;;1.10;;
67508;SDS011;54354;44.724;11.284;2022-11-23T06:33:12;3.05;;;1.38;;
67508;SDS011;54354;44.724;11.284;2022-11-23T06:35:53;2.70;;;1.30;;
67508;SDS011;54354;44.724;11.284;2022-11-23T06:38:22;2.35;;;1.40;;
67508;SDS011;54354;44.724;11.284;2022-11-23T06:41:00;3.10;;;1.70;;
67508;SDS011;54354;44.724;11.284;2022-11-23T06:43:27;1.50;;;1.40;;
67508;SDS011;54354;44.724;11.284;2022-11-23T06:45:54;2.65;;;1.50;;
67508;SDS011;54354;44.724;11.284;2022-11-23T06:48:22;2.47;;;1.58;;
67508;SDS011;54354;44.724;11.284;2022-11-23T06:50:49;2.40;;;2.20;;
67508;SDS011;54354;44.724;11.284;2022-11-23T06:53:16;2.17;;;1.92;;
67508;SDS011;54354;44.724;11.284;2022-11-23T06:55:46;2.63;;;1.60;;
67508;SDS011;54354;44.724;11.284;2022-11-23T06:58:15;2.28;;;1.40;;
67508;SDS011;54354;44.724;11.284;2022-11-23T07:00:41;2.20;;;1.30;;
67508;SDS011;54354;44.724;11.284;2022-11-23T07:03:21;3.85;;;1.70;;
67508;SDS011;54354;44.724;11.284;2022-11-23T07:05:54;4.78;;;1.70;;
67508;SDS011;54354;44.724;11.284;2022-11-23T07:08:22;3.53;;;1.90;;
67508;SDS011;54354;44.724;11.284;2022-11-23T07:10:48;2.92;;;2.47;;
67508;SDS011;54354;44.724;11.284;2022-11-23T07:13:15;5.95;;;2.70;;
67508;SDS011;54354;44.724;11.284;2022-11-23T07:15:41;3.08;;;2.22;;
67508;SDS011;54354;44.724;11.284;2022-11-23T07:18:08;2.30;;;1.88;;
67508;SDS011;54354;44.724;11.284;2022-11-23T07:20:37;1.50;;;1.23;;
67508;SDS011;54354;44.724;11.284;2022-11-23T07:23:05;14.93;;;2.90;;
67508;SDS011;54354;44.724;11.284;2022-11-23T07:25:33;1.35;;;1.23;;
67508;SDS011;54354;44.724;11.284;2022-11-23T07:28:00;1.73;;;1.30;;
67508;SDS011;54354;44.724;11.284;2022-11-23T07:30:28;1.00;;;0.90;;
67508;SDS011;54354;44.724;11.284;2022-11-23T07:32:58;2.13;;;1.38;;
67508;SDS011;54354;44.724;11.284;2022-11-23T07:35:25;1.98;;;1.55;;
67508;SDS011;54354;44.724;11.284;2022-11-23T07:37:51;4.82;;;2.38;;
67508;SDS011;54354;44.724;11.284;2022-11-23T07:40:17;4.22;;;2.60;;
67508;SDS011;54354;44.724;11.284;2022-11-23T07:42:43;3.88;;;3.35;;
67508;SDS011;54354;44.724;11.284;2022-11-23T07:45:08;3.95;;;2.33;;
67508;SDS011;54354;44.724;11.284;2022-11-23T07:47:36;2.70;;;2.45;;
67508;SDS011;54354;44.724;11.284;2022-11-23T07:50:04;3.83;;;2.40;;
67508;SDS011;54354;44.724;11.284;2022-11-23T07:52:30;4.47;;;2.60;;
67508;SDS011;54354;44.724;11.284;2022-11-23T07:54:56;3.25;;;2.30;;
67508;SDS011;54354;44.724;11.284;2022-11-23T07:57:21;4.38;;;2.03;;
67508;SDS011;54354;44.724;11.284;2022-11-23T07:59:47;3.92;;;2.55;;
67508;SDS011;54354;44.724;11.284;2022-11-23T08:02:13;3.30;;;2.40;;
67508;SDS011;54354;44.724;11.284;2022-11-23T08:04:39;3.00;;;2.22;;
67508;SDS011;54354;44.724;11.284;2022-11-23T08:07:04;2.55;;;1.50;;
67508;SDS011;54354;44.724;11.284;2022-11-23T08:09:30;1.95;;;1.42;;
67508;SDS011;54354;44.724;11.284;2022-11-23T08:11:56;4.68;;;2.15;;
67508;SDS011;54354;44.724;11.284;2022-11-23T08:14:22;3.00;;;2.50;;
67508;SDS011;54354;44.724;11.284;2022-11-23T08:16:48;9.18;;;3.50;;
67508;SDS011;54354;44.724;11.284;2022-11-23T08:19:15;3.60;;;2.83;;
67508;SDS011;54354;44.724;11.284;2022-11-23T08:21:41;4.40;;;3.10;;
67508;SDS011;54354;44.724;11.284;2022-11-23T08:24:06;4.20;;;3.58;;
67508;SDS011;54354;44.724;11.284;2022-11-23T08:26:32;4.85;;;3.67;;
67508;SDS011;54354;44.724;11.284;2022-11-23T08:28:58;3.80;;;3.10;;
67508;SDS011;54354;44.724;11.284;2022-11-23T08:31:23;4.15;;;3.28;;
67508;SDS011;54354;44.724;11.284;2022-11-23T08:33:49;2.83;;;2.03;;
67508;SDS011;54354;44.724;11.284;2022-11-23T08:36:14;2.38;;;2.13;;
67508;SDS011;54354;44.724;11.284;2022-11-23T08:38:39;2.28;;;1.90;;
67508;SDS011;54354;44.724;11.284;2022-11-23T08:41:05;2.83;;;1.70;;
67508;SDS011;54354;44.724;11.284;2022-11-23T08:43:31;4.47;;;1.73;;
67508;SDS011;54354;44.724;11.284;2022-11-23T08:45:57;1.80;;;1.50;;
67508;SDS011;54354;44.724;11.284;2022-11-23T08:48:24;4.53;;;1.70;;
67508;SDS011;54354;44.724;11.284;2022-11-23T08:50:50;3.85;;;2.10;;
67508;SDS011;54354;44.724;11.284;2022-11-23T08:53:16;2.22;;;1.95;;
67508;SDS011;54354;44.724;11.284;2022-11-23T08:55:45;3.08;;;2.10;;
67508;SDS011;54354;44.724;11.284;2022-11-23T08:58:11;4.40;;;2.00;;
67508;SDS011;54354;44.724;11.284;2022-11-23T09:00:36;2.63;;;2.20;;
67508;SDS011;54354;44.724;11.284;2022-11-23T09:03:02;2.72;;;2.10;;
67508;SDS011;54354;44.724;11.284;2022-11-23T09:05:28;2.60;;;2.20;;
67508;SDS011;54354;44.724;11.284;2022-11-23T09:07:57;4.10;;;2.38;;
67508;SDS011;54354;44.724;11.284;2022-11-23T09:10:24;3.67;;;2.47;;
67508;SDS011;54354;44.724;11.284;2022-11-23T09:12:49;4.85;;;2.40;;
67508;SDS011;54354;44.724;11.284;2022-11-23T09:15:15;2.45;;;2.13;;
67508;SDS011;54354;44.724;11.284;2022-11-23T09:17:41;2.08;;;1.85;;
67508;SDS011;54354;44.724;11.284;2022-11-23T09:20:06;2.92;;;2.05;;
67508;SDS011;54354;44.724;11.284;2022-11-23T09:22:34;2.47;;;2.10;;
67508;SDS011;54354;44.724;11.284;2022-11-23T09:24:59;3.63;;;2.20;;
67508;SDS011;54354;44.724;11.284;2022-11-23T09:27:25;3.78;;;2.08;;
67508;SDS011;54354;44.724;11.284;2022-11-23T09:29:50;3.75;;;2.20;;
67508;SDS011;54354;44.724;11.284;2022-11-23T09:32:16;4.13;;;2.30;;
67508;SDS011;54354;44.724;11.284;2022-11-23T09:34:41;4.90;;;2.60;;
67508;SDS011;54354;44.724;11.284;2022-11-23T09:37:09;3.85;;;2.50;;
67508;SDS011;54354;44.724;11.284;2022-11-23T09:39:35;3.03;;;2.70;;
67508;SDS011;54354;44.724;11.284;2022-11-23T09:42:08;4.20;;;2.58;;
67508;SDS011;54354;44.724;11.284;2022-11-23T09:48:01;3.45;;;2.70;;
67508;SDS011;54354;44.724;11.284;2022-11-23T09:50:44;4.85;;;2.50;;
67508;SDS011;54354;44.724;11.284;2022-11-23T09:53:12;2.72;;;2.53;;
67508;SDS011;54354;44.724;11.284;2022-11-23T09:55:52;2.90;;;2.58;;
67508;SDS011;54354;44.724;11.284;2022-11-23T09:58:21;4.15;;;2.90;;
67508;SDS011;54354;44.724;11.284;2022-11-23T10:03:26;3.58;;;2.83;;
67508;SDS011;54354;44.724;11.284;2022-11-23T10:05:58;4.93;;;2.80;;
67508;SDS011;54354;44.724;11.284;2022-11-23T10:08:29;3.65;;;2.33;;
67508;SDS011;54354;44.724;11.284;2022-11-23T10:11:08;3.25;;;2.67;;
67508;SDS011;54354;44.724;11.284;2022-11-23T10:19:56;7.53;;;3.70;;
67508;SDS011;54354;44.724;11.284;2022-11-23T10:22:56;5.38;;;3.60;;
67508;SDS011;54354;44.724;11.284;2022-11-23T10:25:24;5.85;;;4.35;;
67508;SDS011;54354;44.724;11.284;2022-11-23T10:27:51;6.22;;;4.65;;
67508;SDS011;54354;44.724;11.284;2022-11-23T10:30:21;6.38;;;5.05;;
67508;SDS011;54354;44.724;11.284;2022-11-23T10:32:50;5.63;;;5.00;;
67508;SDS011;54354;44.724;11.284;2022-11-23T10:35:29;6.85;;;4.80;;
67508;SDS011;54354;44.724;11.284;2022-11-23T10:38:09;7.28;;;4.95;;
67508;SDS011;54354;44.724;11.284;2022-11-23T10:40:37;8.75;;;5.00;;
67508;SDS011;54354;44.724;11.284;2022-11-23T10:43:16;5.75;;;5.15;;
67508;SDS011;54354;44.724;11.284;2022-11-23T10:45:45;5.47;;;4.72;;
67508;SDS011;54354;44.724;11.284;2022-11-23T10:48:11;6.85;;;5.35;;
67508;SDS011;54354;44.724;11.284;2022-11-23T10:50:37;8.00;;;5.65;;
67508;SDS011;54354;44.724;11.284;2022-11-23T10:55:45;5.60;;;4.60;;
67508;SDS011;54354;44.724;11.284;2022-11-23T10:58:32;4.43;;;3.92;;
67508;SDS011;54354;44.724;11.284;2022-11-23T11:01:08;5.60;;;4.03;;
67508;SDS011;54354;44.724;11.284;2022-11-23T11:03:37;4.97;;;3.92;;
67508;SDS011;54354;44.724;11.284;2022-11-23T11:06:03;5.30;;;3.92;;
67508;SDS011;54354;44.724;11.284;2022-11-23T11:08:30;4.60;;;3.63;;
67508;SDS011;54354;44.724;11.284;2022-11-23T11:10:59;4.07;;;3.67;;
67508;SDS011;54354;44.724;11.284;2022-11-23T11:13:30;3.70;;;3.20;;
67508;SDS011;54354;44.724;11.284;2022-11-23T11:16:05;4.75;;;3.20;;
67508;SDS011;54354;44.724;11.284;2022-11-23T11:21:18;4.57;;;3.58;;
67508;SDS011;54354;44.724;11.284;2022-11-23T11:23:50;3.28;;;2.97;;
67508;SDS011;54354;44.724;11.284;2022-11-23T11:26:26;3.85;;;3.30;;
67508;SDS011;54354;44.724;11.284;2022-11-23T11:28:55;4.07;;;3.38;;
67508;SDS011;54354;44.724;11.284;2022-11-23T11:31:29;5.30;;;3.92;;
67508;SDS011;54354;44.724;11.284;2022-11-23T11:34:06;4.20;;;3.40;;
67508;SDS011;54354;44.724;11.284;2022-11-23T11:42:45;4.72;;;3.97;;
67508;SDS011;54354;44.724;11.284;2022-11-23T11:45:16;4.60;;;4.07;;
67508;SDS011;54354;44.724;11.284;2022-11-23T11:48:07;5.97;;;4.47;;
67508;SDS011;54354;44.724;11.284;2022-11-23T11:50:55;5.63;;;4.38;;
67508;SDS011;54354;44.724;11.284;2022-11-23T11:53:29;5.30;;;4.80;;
67508;SDS011;54354;44.724;11.284;2022-11-23T11:58:42;4.65;;;4.25;;
67508;SDS011;54354;44.724;11.284;2022-11-23T12:01:35;5.65;;;4.10;;
67508;SDS011;54354;44.724;11.284;2022-11-23T12:04:13;5.82;;;4.70;;
67508;SDS011;54354;44.724;11.284;2022-11-23T12:06:47;4.85;;;4.45;;
67508;SDS011;54354;44.724;11.284;2022-11-23T12:09:18;5.38;;;4.88;;
67508;SDS011;54354;44.724;11.284;2022-11-23T12:11:51;4.75;;;4.35;;
67508;SDS011;54354;44.724;11.284;2022-11-23T12:14:16;4.43;;;4.03;;
67508;SDS011;54354;44.724;11.284;2022-11-23T12:19:29;7.10;;;4.72;;
67508;SDS011;54354;44.724;11.284;2022-11-23T12:28:01;4.57;;;4.18;;
67508;SDS011;54354;44.724;11.284;2022-11-23T12:30:33;5.20;;;4.70;;
67508;SDS011;54354;44.724;11.284;2022-11-23T12:38:30;4.88;;;4.47;;
67508;SDS011;54354;44.724;11.284;2022-11-23T12:44:15;4.40;;;4.00;;
67508;SDS011;54354;44.724;11.284;2022-11-23T12:50:03;6.65;;;4.65;;
67508;SDS011;54354;44.724;11.284;2022-11-23T12:55:46;5.05;;;3.72;;
67508;SDS011;54354;44.724;11.284;2022-11-23T13:15:53;4.28;;;3.88;;
67508;SDS011;54354;44.724;11.284;2022-11-23T13:21:14;5.18;;;4.40;;
67508;SDS011;54354;44.724;11.284;2022-11-23T13:23:42;5.18;;;3.83;;
67508;SDS011;54354;44.724;11.284;2022-11-23T13:26:15;6.03;;;4.03;;
67508;SDS011;54354;44.724;11.284;2022-11-23T13:28:51;5.05;;;3.75;;
67508;SDS011;54354;44.724;11.284;2022-11-23T13:31:19;6.53;;;4.20;;
67508;SDS011;54354;44.724;11.284;2022-11-23T13:33:56;8.73;;;4.32;;
67508;SDS011;54354;44.724;11.284;2022-11-23T13:38:59;5.53;;;4.10;;
67508;SDS011;54354;44.724;11.284;2022-11-23T13:46:54;4.28;;;3.88;;
67508;SDS011;54354;44.724;11.284;2022-11-23T13:49:39;5.03;;;3.80;;
67508;SDS011;54354;44.724;11.284;2022-11-23T13:57:34;4.82;;;3.92;;
67508;SDS011;54354;44.724;11.284;2022-11-23T14:08:50;4.90;;;4.40;;
67508;SDS011;54354;44.724;11.284;2022-11-23T14:11:23;4.88;;;4.47;;
67508;SDS011;54354;44.724;11.284;2022-11-23T14:13:56;5.03;;;4.50;;
67508;SDS011;54354;44.724;11.284;2022-11-23T14:41:31;6.63;;;5.47;;
67508;SDS011;54354;44.724;11.284;2022-11-23T14:44:00;7.85;;;5.85;;
67508;SDS011;54354;44.724;11.284;2022-11-23T14:46:27;6.45;;;5.00;;
67508;SDS011;54354;44.724;11.284;2022-11-23T14:49:03;4.53;;;4.13;;
67508;SDS011;54354;44.724;11.284;2022-11-23T14:51:38;6.00;;;4.75;;
67508;SDS011;54354;44.724;11.284;2022-11-23T14:54:08;5.10;;;4.32;;
67508;SDS011;54354;44.724;11.284;2022-11-23T14:56:40;4.60;;;4.20;;
67508;SDS011;54354;44.724;11.284;2022-11-23T15:01:44;5.03;;;4.53;;
67508;SDS011;54354;44.724;11.284;2022-11-23T15:04:25;5.82;;;4.60;;
67508;SDS011;54354;44.724;11.284;2022-11-23T15:07:11;4.95;;;4.40;;
67508;SDS011;54354;44.724;11.284;2022-11-23T15:14:53;5.45;;;4.75;;
67508;SDS011;54354;44.724;11.284;2022-11-23T15:17:21;7.28;;;5.38;;
67508;SDS011;54354;44.724;11.284;2022-11-23T15:19:54;6.68;;;5.40;;
67508;SDS011;54354;44.724;11.284;2022-11-23T15:22:22;5.60;;;5.05;;
67508;SDS011;54354;44.724;11.284;2022-11-23T15:24:49;9.25;;;5.50;;
67508;SDS011;54354;44.724;11.284;2022-11-23T15:27:15;6.13;;;5.53;;
67508;SDS011;54354;44.724;11.284;2022-11-23T15:29:55;7.43;;;5.35;;
67508;SDS011;54354;44.724;11.284;2022-11-23T15:32:26;6.53;;;5.32;;
67508;SDS011;54354;44.724;11.284;2022-11-23T15:34:53;7.38;;;5.82;;
67508;SDS011;54354;44.724;11.284;2022-11-23T15:37:21;6.18;;;5.55;;
67508;SDS011;54354;44.724;11.284;2022-11-23T15:39:48;6.47;;;5.65;;
67508;SDS011;54354;44.724;11.284;2022-11-23T15:42:18;6.70;;;6.10;;
67508;SDS011;54354;44.724;11.284;2022-11-23T15:44:46;6.47;;;5.57;;
67508;SDS011;54354;44.724;11.284;2022-11-23T15:47:17;10.35;;;6.00;;
67508;SDS011;54354;44.724;11.284;2022-11-23T15:49:47;7.45;;;6.60;;
67508;SDS011;54354;44.724;11.284;2022-11-23T15:52:14;7.32;;;6.07;;
67508;SDS011;54354;44.724;11.284;2022-11-23T15:54:42;7.45;;;6.70;;
67508;SDS011;54354;44.724;11.284;2022-11-23T15:57:09;13.20;;;8.50;;
67508;SDS011;54354;44.724;11.284;2022-11-23T15:59:43;11.48;;;8.68;;
67508;SDS011;54354;44.724;11.284;2022-11-23T16:02:21;12.60;;;8.05;;
67508;SDS011;54354;44.724;11.284;2022-11-23T16:05:02;13.70;;;8.30;;
67508;SDS011;54354;44.724;11.284;2022-11-23T16:10:17;11.63;;;8.50;;
67508;SDS011;54354;44.724;11.284;2022-11-23T16:12:49;9.93;;;7.95;;
67508;SDS011;54354;44.724;11.284;2022-11-23T16:23:41;14.32;;;9.40;;
67508;SDS011;54354;44.724;11.284;2022-11-23T16:26:13;14.90;;;9.60;;
67508;SDS011;54354;44.724;11.284;2022-11-23T16:28:49;18.33;;;9.80;;
67508;SDS011;54354;44.724;11.284;2022-11-23T16:34:00;15.63;;;9.73;;
67508;SDS011;54354;44.724;11.284;2022-11-23T16:36:27;16.30;;;10.95;;
67508;SDS011;54354;44.724;11.284;2022-11-23T16:38:54;12.88;;;10.23;;
67508;SDS011;54354;44.724;11.284;2022-11-23T16:41:19;15.75;;;10.50;;
67508;SDS011;54354;44.724;11.284;2022-11-23T16:43:47;15.32;;;10.80;;
67508;SDS011;54354;44.724;11.284;2022-11-23T16:46:16;16.05;;;11.25;;
67508;SDS011;54354;44.724;11.284;2022-11-23T16:48:42;15.88;;;11.02;;
67508;SDS011;54354;44.724;11.284;2022-11-23T16:51:10;19.23;;;11.75;;
67508;SDS011;54354;44.724;11.284;2022-11-23T16:53:40;18.58;;;11.60;;
67508;SDS011;54354;44.724;11.284;2022-11-23T16:56:08;19.42;;;11.43;;
67508;SDS011;54354;44.724;11.284;2022-11-23T16:58:37;17.08;;;11.68;;
67508;SDS011;54354;44.724;11.284;2022-11-23T17:01:03;15.43;;;10.95;;
67508;SDS011;54354;44.724;11.284;2022-11-23T17:03:29;16.00;;;10.85;;
67508;SDS011;54354;44.724;11.284;2022-11-23T17:05:54;20.63;;;11.82;;
67508;SDS011;54354;44.724;11.284;2022-11-23T17:08:20;18.23;;;11.65;;
67508;SDS011;54354;44.724;11.284;2022-11-23T17:10:46;14.90;;;11.18;;
67508;SDS011;54354;44.724;11.284;2022-11-23T17:13:19;15.02;;;11.32;;
67508;SDS011;54354;44.724;11.284;2022-11-23T17:15:49;15.77;;;10.98;;
67508;SDS011;54354;44.724;11.284;2022-11-23T17:18:15;18.65;;;11.70;;
67508;SDS011;54354;44.724;11.284;2022-11-23T17:20:41;17.85;;;12.77;;
67508;SDS011;54354;44.724;11.284;2022-11-23T17:23:07;18.23;;;12.18;;
67508;SDS011;54354;44.724;11.284;2022-11-23T17:25:33;21.15;;;12.48;;
67508;SDS011;54354;44.724;11.284;2022-11-23T17:27:59;21.30;;;14.60;;
67508;SDS011;54354;44.724;11.284;2022-11-23T17:30:25;21.92;;;15.45;;
67508;SDS011;54354;44.724;11.284;2022-11-23T17:32:52;22.02;;;15.27;;
67508;SDS011;54354;44.724;11.284;2022-11-23T17:35:18;26.55;;;15.73;;
67508;SDS011;54354;44.724;11.284;2022-11-23T17:37:43;29.85;;;16.77;;
67508;SDS011;54354;44.724;11.284;2022-11-23T17:40:17;29.13;;;17.38;;
67508;SDS011;54354;44.724;11.284;2022-11-23T17:42:44;28.88;;;17.08;;
67508;SDS011;54354;44.724;11.284;2022-11-23T17:45:10;28.10;;;18.25;;
67508;SDS011;54354;44.724;11.284;2022-11-23T17:47:36;28.50;;;17.52;;
67508;SDS011;54354;44.724;11.284;2022-11-23T17:50:03;24.35;;;17.73;;
67508;SDS011;54354;44.724;11.284;2022-11-23T17:52:31;26.23;;;17.95;;
67508;SDS011;54354;44.724;11.284;2022-11-23T17:54:57;33.17;;;18.92;;
67508;SDS011;54354;44.724;11.284;2022-11-23T17:57:23;32.08;;;19.30;;
67508;SDS011;54354;44.724;11.284;2022-11-23T17:59:51;29.30;;;17.88;;
67508;SDS011;54354;44.724;11.284;2022-11-23T18:02:17;34.28;;;23.90;;
67508;SDS011;54354;44.724;11.284;2022-11-23T18:04:44;39.15;;;25.38;;
67508;SDS011;54354;44.724;11.284;2022-11-23T18:07:12;38.15;;;24.25;;
67508;SDS011;54354;44.724;11.284;2022-11-23T18:09:39;44.95;;;26.08;;
67508;SDS011;54354;44.724;11.284;2022-11-23T18:12:05;37.92;;;24.40;;
67508;SDS011;54354;44.724;11.284;2022-11-23T18:14:30;36.05;;;23.75;;
67508;SDS011;54354;44.724;11.284;2022-11-23T18:16:56;40.83;;;23.00;;
67508;SDS011;54354;44.724;11.284;2022-11-23T18:19:22;32.13;;;22.55;;
67508;SDS011;54354;44.724;11.284;2022-11-23T18:21:48;33.50;;;20.02;;